Estación Meteorológica Peña el Pijo (Robertgarden) [ 12/17/17 01:28:06 CET ]

Fecha Hora Presion(HPa) Temp (°C) Humedad % Rocio (°C) Viento ( m/s) Direccion Lluvia 1Hora(mm) Lluvia 24H(mm) LLuvia Total(mm)
2017-Oct-21 01:01:48 1015.100 8.7 82 5.8         1466.45
2017-Oct-21 02:01:43 1015.100 8.1 83 5.4         1466.45
2017-Oct-21 03:01:41 1015.200 7.6 84 5.1         1466.45
2017-Oct-21 04:01:40 1014.700 7.3 85 4.9         1466.45
2017-Oct-21 05:01:40 1014.500 7.3 86 5.1         1466.45
2017-Oct-21 06:03:43 1014.300 7.3 86 5.1         1466.45
2017-Oct-21 07:01:57 1014.500 6.2 86 4.0         1466.45
2017-Oct-21 08:01:49 1015.100 5.4 86 3.2         1466.45
2017-Oct-21 09:01:42 1015.600 5.0 87 3.0         1466.45
2017-Oct-21 10:01:48 1015.900 10.7 87 8.6         1466.45
2017-Oct-21 11:01:27 1015.800 18.9 66 12.4         1466.45
2017-Oct-21 12:01:31 1015.700 23.1 50 12.1         1466.45
2017-Oct-21 13:01:43 1015.200 23.6 47 11.6         1466.45
2017-Oct-21 14:01:52 1014.700 23.8 44 10.8         1466.45
2017-Oct-21 15:01:52 1014.200 25.0 43 11.5         1466.45
2017-Oct-21 16:01:40 1013.900 26.1 40 11.5         1466.45
2017-Oct-21 17:01:49 1013.800 24.8 42 11.0         1466.45
2017-Oct-21 18:01:45 1013.600 22.7 47 10.7         1466.45
2017-Oct-21 19:01:57 1014.100 18.8 55 9.5         1466.45
2017-Oct-21 20:01:49 1014.300 15.9 62 8.7         1466.45
2017-Oct-21 21:01:43 1015.200 13.1 70 7.8         1466.45
2017-Oct-21 22:01:52 1015.600 11.9 75 7.6         1466.45
2017-Oct-21 23:01:55 1016.000 11.2 78 7.5         1466.45

Temperatura Máxima:26°    Temperatura Mínima:
Presión Máxima:1016.000 Hpa    Presión Mínima:1013.600 Hpa


Volver